Terminal Aerodrome Forecast
Issued by NWS Wilmington, OH

Current Version | Previous Version | Graphics & Text | Print | Product List | Glossary On
Versions: 1 2 3 4 5 6 7 8 9 10 11 12 13 14 15 16 17 18 19 20 21 22 23 24 25
417
FTUS41 KILN 200524
TAFCVG
TAF
KCVG 200524Z 2006/2112 12006KT P6SM -RA OVC012
      TEMPO 2006/2009 2SM RA BR OVC008
     FM201200 18006KT 3SM BR OVC005
     FM201600 21007KT P6SM BKN008
     FM202100 18004KT P6SM SCT012 BKN022
     FM210300 18004KT P6SM BKN012=

USA.gov is the U.S. government's official web portal to all federal, state and local government web resources and services.